MMMA/MAM METAR and TAF weather

Enter ICAO airport designator
Station Type Date Time Source
MMMA METAR 2021/01/20 20:44 UTC NOAA

MMMA 202044Z 27008KT 4SM -DZ BKN010 OVC070 18/18 A3017 RMK SLP216 57027 927 60005 8/72/ HZ INTMT DZ


Station Type Date Time Source
MMMA Decoded METAR 2021/01/20 20:44 UTC NOAA

Matamoros International , Mexico (MMMA) 25-46N 097-32W
Jan 20, 2021 - 03:44 PM EST / 2021.01.20 2044 UTC
Wind: from the W (270 degrees) at 9 MPH (8 KT):0
Visibility: 4 mile(s):0
Sky conditions: overcast
Weather: light drizzle
Temperature: 64 F (18 C)
Dew Point: 64 F (18 C)
Relative Humidity: 100%
Pressure (altimeter): 30.17 in. Hg (1021 hPa)
Pressure tendency: 0.08 inches (2.7 hPa) lower than three hours ago
ob: MMMA 202044Z 27008KT 4SM -DZ BKN010 OVC070 18/18 A3017 RMK SLP216 57027 927 60005 8/72/ HZ INTMT DZ
cycle: 20

Station Type Date Time Source
MMMA TAF 2021/01/20 18:31 UTC NOAA

TAF MMMA 201724Z 2018/2118 15010KT 5SM DZ BKN010 OVC070
TEMPO 2021/2101 3SM RA
FM210300 00000KT 3SM BR BKN005 OVC010
FM211200 12010KT 2SM DZ BR BKN005 OVC010

Example: see airport list